createdAt,value
2017-05-20T00:00:56.196Z,13.90
2017-05-20T00:03:23.110Z,14.00
2017-05-20T00:05:50.236Z,13.90
2017-05-20T00:08:18.852Z,13.70
2017-05-20T00:10:45.812Z,13.40
2017-05-20T00:13:13.130Z,13.50
2017-05-20T00:15:40.044Z,13.50
2017-05-20T00:18:06.967Z,13.40
2017-05-20T00:20:34.387Z,13.40
2017-05-20T00:23:01.342Z,13.30
2017-05-20T00:25:28.272Z,13.50
2017-05-20T00:27:55.633Z,13.40
2017-05-20T00:30:22.545Z,13.40
2017-05-20T00:32:49.481Z,13.40
2017-05-20T00:35:16.759Z,13.40
2017-05-20T00:37:43.699Z,13.40
2017-05-20T00:40:10.669Z,13.50
2017-05-20T00:42:37.820Z,13.50
2017-05-20T00:45:04.738Z,13.50
2017-05-20T00:47:31.682Z,13.30
2017-05-20T00:49:58.765Z,13.40
2017-05-20T00:52:25.698Z,13.50
2017-05-20T00:54:52.616Z,13.20
2017-05-20T00:57:19.689Z,13.00
2017-05-20T00:59:46.740Z,13.10
2017-05-20T01:02:13.685Z,13.10
2017-05-20T01:04:40.925Z,13.20
2017-05-20T01:07:09.114Z,13.10
2017-05-20T01:09:36.056Z,13.00
2017-05-20T01:12:03.332Z,13.00
2017-05-20T01:14:30.360Z,13.10
2017-05-20T01:16:57.252Z,13.10
2017-05-20T01:19:24.557Z,13.10
2017-05-20T01:21:51.606Z,13.20
2017-05-20T01:24:18.511Z,13.20
2017-05-20T01:26:45.739Z,13.10
2017-05-20T01:29:12.661Z,12.90
2017-05-20T01:31:39.800Z,13.00
2017-05-20T01:34:06.952Z,13.30
2017-05-20T01:36:33.905Z,13.30
2017-05-20T01:39:00.857Z,13.40
2017-05-20T01:41:27.988Z,13.40
2017-05-20T01:43:54.937Z,13.40
2017-05-20T01:46:21.887Z,13.30
2017-05-20T01:48:49.247Z,13.20
2017-05-20T01:51:16.143Z,13.30
2017-05-20T01:53:43.069Z,13.20
2017-05-20T01:56:10.177Z,13.20
2017-05-20T01:58:37.106Z,13.30
2017-05-20T02:01:04.020Z,13.20
2017-05-20T02:03:31.116Z,13.30
2017-05-20T02:05:58.051Z,13.40
2017-05-20T02:08:26.099Z,13.40
2017-05-20T02:10:53.037Z,13.20
2017-05-20T02:13:20.296Z,13.20
2017-05-20T02:15:47.242Z,13.10
2017-05-20T02:18:14.175Z,13.20
2017-05-20T02:20:41.468Z,12.90
2017-05-20T02:23:08.389Z,12.80
2017-05-20T02:25:35.308Z,12.80
2017-05-20T02:28:02.228Z,12.80
2017-05-20T02:30:29.143Z,12.90
2017-05-20T02:32:56.512Z,13.00
2017-05-20T02:35:23.448Z,13.00
2017-05-20T02:37:50.393Z,13.00
2017-05-20T02:40:17.358Z,12.90
2017-05-20T02:42:44.273Z,13.00
2017-05-20T02:45:11.244Z,13.00
2017-05-20T02:47:38.387Z,12.90
2017-05-20T02:50:05.336Z,12.90
2017-05-20T02:52:32.279Z,12.90
2017-05-20T02:54:59.228Z,12.70
2017-05-20T02:57:26.163Z,12.60
2017-05-20T02:59:53.302Z,12.60
2017-05-20T03:02:20.200Z,12.60
2017-05-20T03:04:47.769Z,12.70
2017-05-20T03:07:15.072Z,12.90
2017-05-20T03:09:49.019Z,12.90
2017-05-20T03:12:16.089Z,12.70
2017-05-20T03:14:43.039Z,12.70
2017-05-20T03:17:10.349Z,12.60
2017-05-20T03:19:37.279Z,12.70
2017-05-20T03:22:04.203Z,12.70
2017-05-20T03:24:31.486Z,12.60
2017-05-20T03:26:58.416Z,12.60
2017-05-20T03:29:25.334Z,12.60
2017-05-20T03:31:52.231Z,12.70
2017-05-20T03:34:19.132Z,12.70
2017-05-20T03:36:46.520Z,12.80
2017-05-20T03:39:13.480Z,12.90
2017-05-20T03:41:40.508Z,12.80
2017-05-20T03:44:07.454Z,12.80
2017-05-20T03:46:34.397Z,12.80
2017-05-20T03:49:01.765Z,12.80
2017-05-20T03:51:28.736Z,12.60
2017-05-20T03:53:55.663Z,12.60
2017-05-20T03:56:22.603Z,12.70
2017-05-20T03:58:49.550Z,12.60
2017-05-20T04:01:16.897Z,12.60
2017-05-20T04:03:43.844Z,12.80
2017-05-20T04:06:10.752Z,12.80
2017-05-20T04:08:37.688Z,12.60
2017-05-20T04:11:04.596Z,12.70
2017-05-20T04:13:31.909Z,12.80
2017-05-20T04:15:58.859Z,13.00
2017-05-20T04:18:25.809Z,12.80
2017-05-20T04:20:52.758Z,13.00
2017-05-20T04:23:19.684Z,12.90
2017-05-20T04:25:47.067Z,12.60
2017-05-20T04:28:14.032Z,12.60
2017-05-20T04:30:40.991Z,12.90
2017-05-20T04:33:07.936Z,12.80
2017-05-20T04:35:34.869Z,12.90
2017-05-20T04:38:02.176Z,13.10
2017-05-20T04:40:29.112Z,13.20
2017-05-20T04:42:56.073Z,13.20
2017-05-20T04:45:23.008Z,13.10
2017-05-20T04:47:49.955Z,13.10
2017-05-20T04:50:17.421Z,13.10
2017-05-20T04:52:44.349Z,13.20
2017-05-20T04:55:11.273Z,13.20
2017-05-20T04:57:38.237Z,12.90
2017-05-20T05:00:05.188Z,12.60
2017-05-20T05:02:32.537Z,12.70
2017-05-20T05:04:59.477Z,12.80
2017-05-20T05:07:26.397Z,12.90
2017-05-20T05:09:53.364Z,12.70
2017-05-20T05:12:20.284Z,12.90
2017-05-20T05:14:47.660Z,12.90
2017-05-20T05:17:14.611Z,12.80
2017-05-20T05:19:41.564Z,13.10
2017-05-20T05:22:08.532Z,13.10
2017-05-20T05:24:35.478Z,13.30
2017-05-20T05:27:02.782Z,13.40
2017-05-20T05:29:29.741Z,13.30
2017-05-20T05:31:56.708Z,13.30
2017-05-20T05:34:23.684Z,13.30
2017-05-20T05:36:50.632Z,13.50
2017-05-20T05:39:18.006Z,13.30
2017-05-20T05:41:44.928Z,13.40
2017-05-20T05:44:11.826Z,13.50
2017-05-20T05:46:38.792Z,13.40
2017-05-20T05:49:05.758Z,13.40
2017-05-20T05:51:33.144Z,13.70
2017-05-20T05:54:00.083Z,13.80
2017-05-20T05:56:27.013Z,14.00
2017-05-20T05:58:53.967Z,13.70
2017-05-20T06:01:21.945Z,13.30
2017-05-20T06:03:49.299Z,13.40
2017-05-20T06:06:16.270Z,13.30
2017-05-20T06:08:43.220Z,13.40
2017-05-20T06:11:10.159Z,13.70
2017-05-20T06:13:37.086Z,13.60
2017-05-20T06:16:04.597Z,13.70
2017-05-20T06:18:31.568Z,13.70
2017-05-20T06:20:58.484Z,13.50
2017-05-20T06:23:25.791Z,13.60
2017-05-20T06:25:52.748Z,13.70
2017-05-20T06:28:19.671Z,13.70
2017-05-20T06:30:46.644Z,13.90
2017-05-20T06:33:13.568Z,14.00
2017-05-20T06:35:40.852Z,14.10
2017-05-20T06:38:07.802Z,14.10
2017-05-20T06:40:34.744Z,13.90
2017-05-20T06:43:01.677Z,13.90
2017-05-20T06:45:28.634Z,13.80
2017-05-20T06:47:55.994Z,13.50
2017-05-20T06:50:22.927Z,13.70
2017-05-20T06:52:49.879Z,14.00
2017-05-20T06:55:16.845Z,13.80
2017-05-20T06:57:43.793Z,13.90
2017-05-20T07:00:11.100Z,14.20
2017-05-20T07:02:38.009Z,14.30
2017-05-20T07:05:04.934Z,14.20
2017-05-20T07:07:31.883Z,14.20
2017-05-20T07:09:58.837Z,14.40
2017-05-20T07:12:26.304Z,14.40
2017-05-20T07:14:53.232Z,14.50
2017-05-20T07:17:20.177Z,14.20
2017-05-20T07:19:47.128Z,14.30
2017-05-20T07:22:14.042Z,14.50
2017-05-20T07:24:41.932Z,14.50
2017-05-20T07:27:08.882Z,14.50
2017-05-20T07:29:35.841Z,14.50
2017-05-20T07:32:02.852Z,14.60
2017-05-20T07:34:30.669Z,14.70
2017-05-20T07:36:57.997Z,14.70
2017-05-20T07:39:24.906Z,14.90
2017-05-20T07:41:52.036Z,15.00
2017-05-20T07:44:22.139Z,15.10
2017-05-20T07:46:49.520Z,15.20
2017-05-20T07:49:17.085Z,15.30
2017-05-20T07:51:44.047Z,15.20
2017-05-20T07:54:11.031Z,15.30
2017-05-20T07:56:38.076Z,15.20
2017-05-20T07:59:05.028Z,15.20
2017-05-20T08:01:32.348Z,15.10
2017-05-20T08:03:59.872Z,15.30
2017-05-20T08:06:26.805Z,15.20
2017-05-20T08:08:53.937Z,15.10
2017-05-20T08:11:20.890Z,15.20
2017-05-20T08:13:48.186Z,15.50
2017-05-20T08:16:15.117Z,15.20
2017-05-20T08:18:42.037Z,15.20
2017-05-20T08:21:08.971Z,15.20
2017-05-20T08:23:35.897Z,15.30
2017-05-20T08:26:03.231Z,15.40
2017-05-20T08:28:30.150Z,15.80
2017-05-20T08:30:57.070Z,15.50
2017-05-20T08:33:24.049Z,15.80
2017-05-20T08:35:50.977Z,15.60
2017-05-20T08:38:18.353Z,15.40
2017-05-20T08:40:45.297Z,15.70
2017-05-20T08:43:12.231Z,15.80
2017-05-20T08:45:39.173Z,15.50
2017-05-20T08:48:06.108Z,15.40
2017-05-20T08:50:33.453Z,15.40
2017-05-20T08:53:00.389Z,15.20
2017-05-20T08:55:27.319Z,15.20
2017-05-20T08:57:54.293Z,15.20
2017-05-20T09:00:21.231Z,15.20
2017-05-20T09:02:48.596Z,15.60
2017-05-20T09:05:15.546Z,15.70
2017-05-20T09:07:42.466Z,15.80
2017-05-20T09:10:09.432Z,15.70
2017-05-20T09:12:36.369Z,15.90
2017-05-20T09:15:03.722Z,15.80
2017-05-20T09:17:30.642Z,15.60
2017-05-20T09:19:57.701Z,15.50
2017-05-20T09:22:24.993Z,15.60
2017-05-20T09:24:51.930Z,15.80
2017-05-20T09:27:18.883Z,15.90
2017-05-20T09:29:46.405Z,16.10
2017-05-20T09:32:13.360Z,16.30
2017-05-20T09:34:40.293Z,16.30
2017-05-20T09:37:07.256Z,16.20
2017-05-20T09:39:34.182Z,16.30
2017-05-20T09:42:01.492Z,16.40
2017-05-20T09:44:28.449Z,16.60
2017-05-20T09:46:55.393Z,16.70
2017-05-20T09:49:22.342Z,16.50
2017-05-20T09:51:49.253Z,16.00
2017-05-20T09:54:16.577Z,15.90
2017-05-20T09:56:43.495Z,15.90
2017-05-20T09:59:10.414Z,15.90
2017-05-20T10:01:37.898Z,16.00
2017-05-20T10:04:04.848Z,16.30
2017-05-20T10:06:32.138Z,16.40
2017-05-20T10:08:59.069Z,16.40
2017-05-20T10:11:26.027Z,16.80
2017-05-20T10:13:52.975Z,16.90
2017-05-20T10:16:19.915Z,16.70
2017-05-20T10:18:47.295Z,16.80
2017-05-20T10:21:14.233Z,16.90
2017-05-20T10:23:41.225Z,16.70
2017-05-20T10:26:08.192Z,16.90
2017-05-20T10:28:35.131Z,16.90
2017-05-20T10:31:02.577Z,17.10
2017-05-20T10:33:29.674Z,17.40
2017-05-20T10:35:56.682Z,17.30
2017-05-20T10:38:23.635Z,17.00
2017-05-20T10:40:50.585Z,16.80
2017-05-20T10:43:17.961Z,16.80
2017-05-20T10:45:44.889Z,16.60
2017-05-20T10:48:11.792Z,16.70
2017-05-20T10:50:38.758Z,16.50
2017-05-20T10:53:05.688Z,16.50
2017-05-20T10:55:33.056Z,16.50
2017-05-20T10:57:59.963Z,16.50
2017-05-20T11:00:26.856Z,16.60
2017-05-20T11:02:53.824Z,16.50
2017-05-20T11:05:20.782Z,16.60
2017-05-20T11:07:48.055Z,16.70
2017-05-20T11:10:14.992Z,16.90
2017-05-20T11:12:41.973Z,17.00
2017-05-20T11:15:08.937Z,17.30
2017-05-20T11:17:35.878Z,17.40
2017-05-20T11:20:03.207Z,17.30
2017-05-20T11:22:30.209Z,17.30
2017-05-20T11:24:57.207Z,17.40
2017-05-20T11:27:24.147Z,17.70
2017-05-20T11:29:51.082Z,17.70
2017-05-20T11:32:18.447Z,18.10
2017-05-20T11:34:45.403Z,18.60
2017-05-20T11:37:12.312Z,18.50
2017-05-20T11:39:39.265Z,18.20
2017-05-20T11:42:06.198Z,17.80
2017-05-20T11:44:33.660Z,17.80
2017-05-20T11:47:00.568Z,17.90
2017-05-20T11:49:27.497Z,18.50
2017-05-20T11:51:54.444Z,18.90
2017-05-20T11:54:21.392Z,18.50
2017-05-20T11:56:48.677Z,18.20
2017-05-20T11:59:15.648Z,18.20
2017-05-20T12:01:42.601Z,18.10
2017-05-20T12:04:09.627Z,18.10
2017-05-20T12:06:36.571Z,18.10
2017-05-20T12:09:03.215Z,18.00
2017-05-20T12:11:30.181Z,18.40
2017-05-20T12:13:57.108Z,18.30
2017-05-20T12:16:24.055Z,18.40
2017-05-20T12:18:51.030Z,18.60
2017-05-20T12:21:18.430Z,18.90
2017-05-20T12:23:45.365Z,18.90
2017-05-20T12:26:12.324Z,18.50
2017-05-20T12:28:39.702Z,18.60
2017-05-20T12:31:06.696Z,18.70
2017-05-20T12:33:33.596Z,18.60
2017-05-20T12:36:00.573Z,18.80
2017-05-20T12:38:28.450Z,19.40
2017-05-20T12:40:55.893Z,19.50
2017-05-20T12:43:22.838Z,19.30
2017-05-20T12:45:49.892Z,18.90
2017-05-20T12:48:17.504Z,18.50
2017-05-20T12:53:37.690Z,18.20
2017-05-20T12:56:04.633Z,18.10
2017-05-20T12:58:31.602Z,18.70
2017-05-20T13:00:58.925Z,18.90
2017-05-20T13:03:25.853Z,19.00
2017-05-20T13:05:52.801Z,18.80
2017-05-20T13:08:19.771Z,18.80
2017-05-20T13:10:46.733Z,18.70
2017-05-20T13:13:14.584Z,18.90
2017-05-20T13:15:41.523Z,19.20
2017-05-20T13:18:08.472Z,19.10
2017-05-20T13:20:35.433Z,18.70
2017-05-20T13:23:02.378Z,18.80
2017-05-20T13:25:29.740Z,19.20
2017-05-20T13:27:56.701Z,19.60
2017-05-20T13:30:23.631Z,19.80
2017-05-20T13:32:50.560Z,20.40
2017-05-20T13:35:17.468Z,20.50
2017-05-20T13:37:44.849Z,19.70
2017-05-20T13:40:11.791Z,19.30
2017-05-20T13:42:38.702Z,19.40
2017-05-20T13:45:05.651Z,19.30
2017-05-20T13:47:32.614Z,19.30
2017-05-20T13:49:59.938Z,19.10
2017-05-20T13:52:26.873Z,19.00
2017-05-20T13:54:53.793Z,18.90
2017-05-20T13:57:20.752Z,19.10
2017-05-20T13:59:47.698Z,19.70
2017-05-20T14:02:15.082Z,20.20
2017-05-20T14:04:42.043Z,19.60
2017-05-20T14:07:08.972Z,19.30
2017-05-20T14:09:35.908Z,19.20
2017-05-20T14:12:02.826Z,19.40
2017-05-20T14:14:30.109Z,19.10
2017-05-20T14:16:57.044Z,18.80
2017-05-20T14:19:23.998Z,18.70
2017-05-20T14:21:50.928Z,18.90
2017-05-20T14:24:17.843Z,19.10
2017-05-20T14:26:45.241Z,20.00
2017-05-20T14:29:12.177Z,20.20
2017-05-20T14:31:39.120Z,20.00
2017-05-20T14:34:06.053Z,19.60
2017-05-20T14:36:32.977Z,19.20
2017-05-20T14:39:00.253Z,19.60
2017-05-20T14:41:27.180Z,19.50
2017-05-20T14:43:54.117Z,19.60
2017-05-20T14:46:21.076Z,19.30
2017-05-20T14:48:48.557Z,19.70
2017-05-20T14:51:15.989Z,19.70
2017-05-20T14:53:42.897Z,19.60
2017-05-20T14:56:09.831Z,19.70
2017-05-20T14:58:36.794Z,19.60
2017-05-20T15:01:03.735Z,20.40
2017-05-20T15:03:31.109Z,22.20
2017-05-20T15:05:58.012Z,23.20
2017-05-20T15:08:24.959Z,22.40
2017-05-20T15:10:51.901Z,20.90
2017-05-20T15:13:18.849Z,20.40
2017-05-20T15:15:46.235Z,20.30
2017-05-20T15:18:13.149Z,20.20
2017-05-20T15:20:40.087Z,20.10
2017-05-20T15:23:07.047Z,20.00
2017-05-20T15:25:34.040Z,20.90
2017-05-20T15:28:01.364Z,21.30
2017-05-20T15:30:28.276Z,22.50
2017-05-20T15:32:55.209Z,22.40
2017-05-20T15:35:22.168Z,22.10
2017-05-20T15:37:49.089Z,22.20
2017-05-20T15:40:16.477Z,21.00
2017-05-20T15:42:43.393Z,20.50
2017-05-20T15:45:10.320Z,21.30
2017-05-20T15:47:37.280Z,22.90
2017-05-20T15:50:04.244Z,25.10
2017-05-20T15:52:31.592Z,24.10
2017-05-20T15:54:58.531Z,22.70
2017-05-20T15:57:25.464Z,21.50
2017-05-20T15:59:52.946Z,21.60
2017-05-20T16:02:19.890Z,23.50
2017-05-20T16:04:46.801Z,25.20
2017-05-20T16:07:14.169Z,26.00
2017-05-20T16:09:41.089Z,26.50
2017-05-20T16:12:07.993Z,26.50
2017-05-20T16:14:34.907Z,26.60
2017-05-20T16:17:01.934Z,26.60
2017-05-20T16:19:29.308Z,27.20
2017-05-20T16:21:56.241Z,27.00
2017-05-20T16:24:23.161Z,25.60
2017-05-20T16:26:50.128Z,26.60
2017-05-20T16:29:17.124Z,27.10
2017-05-20T16:31:44.526Z,25.90
2017-05-20T16:34:11.481Z,25.80
2017-05-20T16:36:38.436Z,26.10
2017-05-20T16:39:05.408Z,25.20
2017-05-20T16:41:32.340Z,25.00
2017-05-20T16:43:59.679Z,24.70
2017-05-20T16:46:26.589Z,24.80
2017-05-20T16:48:53.911Z,23.60
2017-05-20T16:51:20.986Z,23.00
2017-05-20T16:53:47.922Z,22.70
2017-05-20T16:56:15.269Z,23.00
2017-05-20T16:58:42.200Z,23.10
2017-05-20T17:01:09.121Z,22.80
2017-05-20T17:03:36.048Z,22.40
2017-05-20T17:06:03.000Z,22.60
2017-05-20T17:08:30.425Z,22.80
2017-05-20T17:10:57.370Z,23.10
2017-05-20T17:13:24.324Z,23.00
2017-05-20T17:15:51.321Z,22.70
2017-05-20T17:18:18.406Z,22.60
2017-05-20T17:20:45.339Z,23.50
2017-05-20T17:23:12.266Z,23.90
2017-05-20T17:25:40.313Z,24.60
2017-05-20T17:28:07.223Z,24.30
2017-05-20T17:30:34.196Z,24.00
2017-05-20T17:33:01.135Z,24.00
2017-05-20T17:35:28.045Z,23.50
2017-05-20T17:37:55.373Z,22.80
2017-05-20T17:40:22.321Z,22.40
2017-05-20T17:42:49.249Z,22.70
2017-05-20T17:45:16.282Z,22.90
2017-05-20T17:47:43.253Z,22.70
2017-05-20T17:50:10.540Z,22.50
2017-05-20T17:52:37.481Z,23.00
2017-05-20T17:55:04.433Z,23.50
2017-05-20T17:57:31.381Z,24.00
2017-05-20T17:59:58.728Z,24.00
2017-05-20T18:02:26.090Z,23.60
2017-05-20T18:04:53.031Z,23.30
2017-05-20T18:07:20.028Z,22.70
2017-05-20T18:09:46.998Z,22.80
2017-05-20T18:12:13.928Z,23.70
2017-05-20T18:14:41.280Z,24.10
2017-05-20T18:17:08.200Z,24.00
2017-05-20T18:19:35.129Z,24.30
2017-05-20T18:22:02.070Z,24.30
2017-05-20T18:24:28.970Z,23.50
2017-05-20T18:26:56.338Z,23.30
2017-05-20T18:29:23.253Z,23.00
2017-05-20T18:31:50.156Z,22.70
2017-05-20T18:34:17.080Z,22.70
2017-05-20T18:36:43.993Z,23.00
2017-05-20T18:39:11.364Z,22.70
2017-05-20T18:41:38.284Z,22.70
2017-05-20T18:44:05.200Z,22.30
2017-05-20T18:46:32.130Z,21.50
2017-05-20T18:48:59.080Z,21.00
2017-05-20T18:51:26.389Z,20.70
2017-05-20T18:53:53.313Z,20.60
2017-05-20T18:56:20.247Z,20.60
2017-05-20T18:58:47.205Z,20.50
2017-05-20T19:01:14.145Z,20.20
2017-05-20T19:03:41.079Z,20.00
2017-05-20T19:06:08.586Z,19.90
2017-05-20T19:08:35.529Z,19.80
2017-05-20T19:11:02.482Z,19.40
2017-05-20T19:13:29.409Z,19.30
2017-05-20T19:15:56.382Z,19.20
2017-05-20T19:18:23.707Z,19.00
2017-05-20T19:20:50.643Z,18.90
2017-05-20T19:23:17.576Z,18.70
2017-05-20T19:25:44.543Z,18.70
2017-05-20T19:28:11.481Z,18.60
2017-05-20T19:30:38.867Z,18.30
2017-05-20T19:33:05.801Z,18.10
2017-05-20T19:35:32.716Z,18.30
2017-05-20T19:37:59.686Z,18.30
2017-05-20T19:40:26.572Z,18.30
2017-05-20T19:42:53.900Z,18.10
2017-05-20T19:45:20.824Z,17.90
2017-05-20T19:47:47.729Z,17.90
2017-05-20T19:50:14.660Z,18.00
2017-05-20T19:52:41.596Z,17.70
2017-05-20T19:55:08.936Z,17.70
2017-05-20T19:57:35.854Z,17.80
2017-05-20T20:00:02.760Z,17.70
2017-05-20T20:02:29.768Z,17.60
2017-05-20T20:04:56.697Z,17.50
2017-05-20T20:07:24.068Z,17.50
2017-05-20T20:09:50.988Z,17.50
2017-05-20T20:12:17.958Z,17.40
2017-05-20T20:14:44.887Z,17.40
2017-05-20T20:17:11.828Z,17.40
2017-05-20T20:19:39.205Z,17.30
2017-05-20T20:22:06.117Z,17.30
2017-05-20T20:24:33.049Z,17.20
2017-05-20T20:27:00.043Z,16.80
2017-05-20T20:29:26.953Z,16.90
2017-05-20T20:31:54.245Z,16.90
2017-05-20T20:34:21.154Z,16.60
2017-05-20T20:36:48.213Z,16.70
2017-05-20T20:39:15.179Z,16.70
2017-05-20T20:41:42.109Z,16.70
2017-05-20T20:44:09.460Z,16.50
2017-05-20T20:46:36.378Z,16.50
2017-05-20T20:49:03.285Z,16.30
2017-05-20T20:51:30.212Z,16.30
2017-05-20T20:53:57.132Z,16.20
2017-05-20T20:56:24.416Z,16.20
2017-05-20T20:58:51.354Z,16.20
2017-05-20T21:01:18.268Z,16.30
2017-05-20T21:03:45.247Z,16.30
2017-05-20T21:06:12.175Z,16.20
2017-05-20T21:08:39.535Z,16.20
2017-05-20T21:11:06.480Z,16.20
2017-05-20T21:13:33.404Z,16.20
2017-05-20T21:16:00.327Z,16.30
2017-05-20T21:18:27.245Z,16.30
2017-05-20T21:20:54.574Z,16.10
2017-05-20T21:23:21.488Z,15.90
2017-05-20T21:25:48.401Z,15.80
2017-05-20T21:28:15.317Z,15.70
2017-05-20T21:30:42.254Z,15.80
2017-05-20T21:33:09.626Z,15.60
2017-05-20T21:35:36.537Z,15.80
2017-05-20T21:38:03.444Z,15.70
2017-05-20T21:40:30.389Z,15.50
2017-05-20T21:42:57.306Z,15.40
2017-05-20T21:45:24.657Z,15.50
2017-05-20T21:47:51.601Z,15.40
2017-05-20T21:50:18.536Z,15.40
2017-05-20T21:52:45.456Z,15.10
2017-05-20T21:55:12.380Z,14.90
2017-05-20T21:57:39.381Z,15.00
2017-05-20T22:00:06.736Z,14.70
2017-05-20T22:02:33.657Z,14.90
2017-05-20T22:05:00.587Z,14.90
2017-05-20T22:07:27.536Z,14.90
2017-05-20T22:09:54.464Z,14.80
2017-05-20T22:12:21.888Z,14.90
2017-05-20T22:14:48.792Z,14.80
2017-05-20T22:17:15.720Z,14.70
2017-05-20T22:19:43.388Z,14.60
2017-05-20T22:22:10.304Z,14.60
2017-05-20T22:24:37.581Z,14.80
2017-05-20T22:27:04.499Z,15.00
2017-05-20T22:29:31.404Z,14.80
2017-05-20T22:31:58.431Z,14.80
2017-05-20T22:34:25.376Z,14.50
2017-05-20T22:36:52.664Z,14.30
2017-05-20T22:39:19.557Z,14.20
2017-05-20T22:41:46.474Z,14.40
2017-05-20T22:44:13.378Z,14.60
2017-05-20T22:46:40.276Z,14.60
2017-05-20T22:49:07.582Z,14.60
2017-05-20T22:51:34.493Z,14.60
2017-05-20T22:54:01.406Z,14.40
2017-05-20T22:56:28.332Z,14.40
2017-05-20T22:58:55.273Z,14.30
2017-05-20T23:01:22.617Z,14.20
2017-05-20T23:03:49.528Z,14.20
2017-05-20T23:06:16.425Z,14.00
2017-05-20T23:08:43.396Z,13.50
2017-05-20T23:11:10.307Z,13.60
2017-05-20T23:13:37.664Z,13.70
2017-05-20T23:16:04.560Z,13.90
2017-05-20T23:18:31.556Z,13.90
2017-05-20T23:20:58.489Z,13.80
2017-05-20T23:23:25.411Z,13.70
2017-05-20T23:25:52.681Z,13.80
2017-05-20T23:28:19.593Z,13.90
2017-05-20T23:30:46.482Z,14.00
2017-05-20T23:33:13.439Z,14.00
2017-05-20T23:35:40.351Z,13.90
2017-05-20T23:38:07.737Z,13.80
2017-05-20T23:40:34.664Z,13.80
2017-05-20T23:43:01.617Z,13.80
2017-05-20T23:45:28.540Z,13.80
2017-05-20T23:47:55.468Z,13.70
2017-05-20T23:50:22.871Z,13.70
2017-05-20T23:52:50.444Z,13.70
2017-05-20T23:55:17.372Z,13.60
2017-05-20T23:57:44.278Z,13.60
